Terminal Aerodrome Forecast
Issued by NWS North Platte, NE

Home | Current Version | Previous Version | Text Only | Print | Product List | Glossary Off
Versions: 1 2 3 4 5 6 7 8 9 10 11 12 13 14

000
FTUS43 KLBF 180500
TAFVTN
TAF
KVTN 180520Z 1806/1906 28008KT P6SM FEW040 SCT250
     FM181800 25011G17KT P6SM SCT120 BKN200
     FM182100 26013G19KT P6SM BKN120 BKN200
     FM190000 29014G23KT P6SM SCT040 BKN080=

USA.gov is the U.S. government's official web portal to all federal, state and local government web resources and services.